Main page
METAR-TAF:

METAR-TAF

Airports :

Angoulême – Cognac International Airport

Angoulême, France

latitude: 45-43-46N, longitude: 00-13-08E, elevation: 132 m

Current weather observation

The report was made 30 minutes ago, at 21:00 UTC
Wind 7 kt from the North/Northeast
Temperature 2°C
Humidity 75%
Pressure 1035 hPa
Visibility 10 km or more
no clouds below 1500 m and no cumulonimbus

METAR: LFBU 212100Z AUTO 02007KT CAVOK 02/M02 Q1035 NOSIG

Time: 22:30 (21:30 UTC)

Forecast

The report was made 4 hours and 30 minutes ago, at 17:00 UTC
Forecast valid from 21 at 18 UTC to 22 at 18 UTC
Wind 10 kt from the North/Northeast
Visibility 10 km or more
no clouds below 1500 m and no cumulonimbus
Temporary
from 22 at 02 UTC to 22 at 08 UTC
Broken clouds at a height of 800 ft

TAF: LFBU 211700Z 2118/2218 02010KT CAVOK TEMPO 2202/2208 BKN008

Weather observations and forecasts of more than 4000 airports (METAR and TAF reports).

The available stations are represented by yellow and red dots on the map.

Hover mouse over dot to see the name of the station.

Then click to see weather observations and forecasts.

To change the map : click on the green buttons with a black cross to zoom in, on the green button with a dash to zoom out, or on the green arrows for adjacent maps.


METAR-TAF: